createdAt,value
2023-05-18T00:01:17.417Z,11.87
2023-05-18T00:03:55.474Z,11.86
2023-05-18T00:06:29.139Z,11.84
2023-05-18T00:09:02.985Z,11.81
2023-05-18T00:11:40.492Z,11.80
2023-05-18T00:14:14.104Z,11.78
2023-05-18T00:16:48.026Z,11.74
2023-05-18T00:19:22.200Z,11.73
2023-05-18T00:21:56.318Z,11.72
2023-05-18T00:24:30.142Z,11.71
2023-05-18T00:27:03.437Z,11.70
2023-05-18T00:29:37.091Z,11.70
2023-05-18T00:32:10.872Z,11.69
2023-05-18T00:34:44.642Z,11.70
2023-05-18T00:37:18.827Z,11.72
2023-05-18T00:39:52.810Z,11.75
2023-05-18T00:42:26.530Z,11.76
2023-05-18T00:45:00.204Z,11.74
2023-05-18T00:47:33.966Z,11.72
2023-05-18T00:50:09.184Z,11.70
2023-05-18T00:52:43.128Z,11.68
2023-05-18T00:55:17.217Z,11.67
2023-05-18T00:57:50.874Z,11.66
2023-05-18T01:00:24.781Z,11.64
2023-05-18T01:02:58.608Z,11.63
2023-05-18T01:05:32.673Z,11.65
2023-05-18T01:08:06.882Z,11.67
2023-05-18T01:10:43.121Z,11.68
2023-05-18T01:13:33.138Z,11.70
2023-05-18T01:16:11.705Z,11.71
2023-05-18T01:18:55.395Z,11.71
2023-05-18T01:21:52.960Z,11.68
2023-05-18T01:24:36.916Z,11.66
2023-05-18T01:27:12.144Z,11.64
2023-05-18T01:29:47.592Z,11.62
2023-05-18T01:32:24.015Z,11.60
2023-05-18T01:34:57.708Z,11.57
2023-05-18T01:37:31.951Z,11.53
2023-05-18T01:40:06.722Z,11.49
2023-05-18T01:42:45.935Z,11.45
2023-05-18T01:45:26.605Z,11.42
2023-05-18T01:48:03.929Z,11.42
2023-05-18T01:50:41.893Z,11.43
2023-05-18T01:53:22.718Z,11.43
2023-05-18T01:55:57.854Z,11.42
2023-05-18T01:58:32.950Z,11.38
2023-05-18T02:01:08.537Z,11.36
2023-05-18T02:03:43.046Z,11.30
2023-05-18T02:06:16.716Z,11.25
2023-05-18T02:08:51.276Z,11.20
2023-05-18T02:11:24.958Z,11.15
2023-05-18T02:13:59.350Z,11.09
2023-05-18T02:16:33.490Z,11.07
2023-05-18T02:19:07.715Z,11.06
2023-05-18T02:21:42.033Z,11.04
2023-05-18T02:24:15.694Z,11.03
2023-05-18T02:26:49.743Z,11.00
2023-05-18T02:29:23.533Z,10.99
2023-05-18T02:31:57.480Z,10.97
2023-05-18T02:34:34.217Z,10.95
2023-05-18T02:37:08.400Z,10.91
2023-05-18T02:39:42.019Z,10.85
2023-05-18T02:42:15.716Z,10.82
2023-05-18T02:44:49.688Z,10.78
2023-05-18T02:47:23.537Z,10.76
2023-05-18T02:49:57.224Z,10.74
2023-05-18T02:52:31.279Z,10.72
2023-05-18T02:55:05.726Z,10.72
2023-05-18T02:57:57.659Z,10.71
2023-05-18T03:00:43.713Z,10.68
2023-05-18T03:03:17.983Z,10.65
2023-05-18T03:05:54.212Z,10.65
2023-05-18T03:08:29.141Z,10.63
2023-05-18T03:11:02.933Z,10.62
2023-05-18T03:13:40.111Z,10.61
2023-05-18T03:16:13.696Z,10.62
2023-05-18T03:18:47.346Z,10.66
2023-05-18T03:21:22.329Z,10.70
2023-05-18T03:23:56.260Z,10.72
2023-05-18T03:26:31.323Z,10.73
2023-05-18T03:29:04.928Z,10.72
2023-05-18T03:31:39.517Z,10.73
2023-05-18T03:34:13.756Z,10.74
2023-05-18T03:36:48.583Z,10.74
2023-05-18T03:39:22.765Z,10.74
2023-05-18T03:41:56.805Z,10.74
2023-05-18T03:44:31.223Z,10.77
2023-05-18T03:47:05.180Z,10.81
2023-05-18T03:49:42.115Z,10.85
2023-05-18T03:52:22.745Z,10.91
2023-05-18T03:54:56.740Z,10.96
2023-05-18T03:57:31.181Z,10.98
2023-05-18T04:00:12.602Z,11.00
2023-05-18T04:02:52.256Z,11.02
2023-05-18T04:05:29.056Z,11.03
2023-05-18T04:08:03.088Z,11.05
2023-05-18T04:10:37.279Z,11.06
2023-05-18T04:13:10.957Z,11.09
2023-05-18T04:15:45.252Z,11.12
2023-05-18T04:18:19.346Z,11.17
2023-05-18T04:20:53.241Z,11.22
2023-05-18T04:23:27.501Z,11.25
2023-05-18T04:26:01.826Z,11.28
2023-05-18T04:28:38.002Z,11.33
2023-05-18T04:31:14.851Z,11.38
2023-05-18T04:33:48.940Z,11.40
2023-05-18T04:36:26.533Z,11.41
2023-05-18T04:39:00.198Z,11.41
2023-05-18T04:41:34.719Z,11.41
2023-05-18T04:44:08.288Z,11.42
2023-05-18T04:46:42.217Z,11.45
2023-05-18T04:49:16.508Z,11.49
2023-05-18T04:51:50.798Z,11.54
2023-05-18T04:54:25.088Z,11.60
2023-05-18T04:56:59.394Z,11.68
2023-05-18T04:59:37.505Z,11.75
2023-05-18T05:02:11.656Z,11.83
2023-05-18T05:04:47.101Z,11.88
2023-05-18T05:07:21.656Z,11.95
2023-05-18T05:09:55.422Z,12.01
2023-05-18T05:12:29.332Z,12.06
2023-05-18T05:15:03.432Z,12.11
2023-05-18T05:17:37.894Z,12.16
2023-05-18T05:20:15.116Z,12.19
2023-05-18T05:22:49.354Z,12.22
2023-05-18T05:25:29.036Z,12.27
2023-05-18T05:28:02.777Z,12.29
2023-05-18T05:30:36.868Z,12.33
2023-05-18T05:33:10.511Z,12.39
2023-05-18T05:35:44.728Z,12.42
2023-05-18T05:38:18.375Z,12.46
2023-05-18T05:40:52.212Z,12.52
2023-05-18T05:43:26.274Z,12.54
2023-05-18T05:46:00.095Z,12.58
2023-05-18T05:48:34.937Z,12.64
2023-05-18T05:51:09.585Z,12.70
2023-05-18T05:53:43.900Z,12.70
2023-05-18T05:56:17.885Z,12.70
2023-05-18T05:58:52.162Z,12.73
2023-05-18T06:01:26.134Z,12.78
2023-05-18T06:04:00.208Z,12.86
2023-05-18T06:06:34.363Z,12.95
2023-05-18T06:09:09.194Z,13.08
2023-05-18T06:11:42.873Z,13.21
2023-05-18T06:14:17.146Z,13.39
2023-05-18T06:16:51.514Z,13.53
2023-05-18T06:19:25.759Z,13.68
2023-05-18T06:22:00.315Z,13.85
2023-05-18T06:24:36.674Z,13.94
2023-05-18T06:27:32.279Z,14.05
2023-05-18T06:30:36.216Z,14.16
2023-05-18T06:33:18.327Z,14.23
2023-05-18T06:35:52.270Z,14.31
2023-05-18T06:38:26.679Z,14.38
2023-05-18T06:41:00.770Z,14.54
2023-05-18T06:43:34.918Z,14.70
2023-05-18T06:46:32.425Z,14.83
2023-05-18T06:49:13.562Z,14.87
2023-05-18T06:51:47.642Z,14.96
2023-05-18T06:54:22.712Z,15.14
2023-05-18T06:56:56.922Z,15.39
2023-05-18T06:59:31.492Z,15.64
2023-05-18T07:02:05.692Z,15.77
2023-05-18T07:04:39.468Z,15.90
2023-05-18T07:07:13.549Z,16.04
2023-05-18T07:09:50.113Z,16.12
2023-05-18T07:12:24.240Z,16.18
2023-05-18T07:14:57.751Z,16.27
2023-05-18T07:17:32.111Z,16.34
2023-05-18T07:20:07.458Z,16.39
2023-05-18T07:22:41.032Z,16.48
2023-05-18T07:25:14.841Z,16.49
2023-05-18T07:27:48.604Z,16.53
2023-05-18T07:30:22.274Z,16.62
2023-05-18T07:32:56.965Z,16.65
2023-05-18T07:35:31.454Z,16.62
2023-05-18T07:38:05.723Z,16.65
2023-05-18T07:40:39.750Z,16.68
2023-05-18T07:43:13.685Z,16.73
2023-05-18T07:45:47.739Z,16.88
2023-05-18T07:48:21.411Z,17.07
2023-05-18T07:50:55.797Z,17.29
2023-05-18T07:53:29.452Z,17.42
2023-05-18T07:56:04.504Z,17.55
2023-05-18T07:58:38.658Z,17.70
2023-05-18T08:01:12.360Z,17.85
2023-05-18T08:03:46.404Z,17.94
2023-05-18T08:06:20.928Z,18.06
2023-05-18T08:08:57.343Z,18.41
2023-05-18T08:11:31.063Z,18.70
2023-05-18T08:14:04.830Z,18.86
2023-05-18T08:16:38.655Z,18.96
2023-05-18T08:19:12.714Z,19.02
2023-05-18T08:21:46.699Z,19.13
2023-05-18T08:24:20.797Z,19.28
2023-05-18T08:26:54.658Z,19.45
2023-05-18T08:29:28.483Z,19.53
2023-05-18T08:32:02.366Z,19.44
2023-05-18T08:34:36.335Z,19.32
2023-05-18T08:37:10.254Z,19.22
2023-05-18T08:39:46.506Z,19.15
2023-05-18T08:42:27.702Z,19.13
2023-05-18T08:45:16.375Z,19.02
2023-05-18T08:47:54.320Z,18.96
2023-05-18T08:50:33.393Z,18.84
2023-05-18T08:53:09.125Z,18.79
2023-05-18T08:55:44.178Z,18.71
2023-05-18T08:58:21.910Z,18.72
2023-05-18T09:00:56.381Z,18.78
2023-05-18T09:03:31.113Z,18.79
2023-05-18T09:06:05.283Z,18.86
2023-05-18T09:08:39.356Z,18.90
2023-05-18T09:11:14.616Z,18.87
2023-05-18T09:13:48.431Z,18.85
2023-05-18T09:16:22.208Z,18.85
2023-05-18T09:18:56.311Z,18.81
2023-05-18T09:21:32.771Z,18.76
2023-05-18T09:24:07.955Z,18.78
2023-05-18T09:26:42.311Z,18.83
2023-05-18T09:29:24.610Z,18.85
2023-05-18T09:31:58.483Z,18.88
2023-05-18T09:34:43.292Z,18.98
2023-05-18T09:37:20.460Z,19.11
2023-05-18T09:40:06.465Z,19.20
2023-05-18T09:42:41.851Z,19.21
2023-05-18T09:45:24.605Z,19.19
2023-05-18T09:47:58.017Z,19.22
2023-05-18T09:50:32.888Z,19.30
2023-05-18T09:53:08.245Z,19.34
2023-05-18T09:55:50.660Z,19.29
2023-05-18T09:58:24.685Z,19.23
2023-05-18T10:01:04.302Z,19.12
2023-05-18T10:03:40.917Z,19.09
2023-05-18T10:06:15.450Z,19.20
2023-05-18T10:08:50.938Z,19.25
2023-05-18T10:11:25.121Z,19.30
2023-05-18T10:14:00.220Z,19.46
2023-05-18T10:16:35.843Z,19.64
2023-05-18T10:19:10.817Z,19.68
2023-05-18T10:21:46.533Z,19.51
2023-05-18T10:24:23.506Z,19.28
2023-05-18T10:26:58.558Z,19.20
2023-05-18T10:29:34.368Z,19.27
2023-05-18T10:32:13.837Z,19.43
2023-05-18T10:34:48.019Z,19.57
2023-05-18T10:37:24.068Z,19.64
2023-05-18T10:40:00.411Z,19.78
2023-05-18T10:42:34.909Z,19.88
2023-05-18T10:45:20.054Z,19.97
2023-05-18T10:47:55.593Z,20.07
2023-05-18T10:50:30.343Z,20.21
2023-05-18T10:53:05.156Z,20.30
2023-05-18T10:55:39.309Z,20.30
2023-05-18T10:58:17.203Z,20.24
2023-05-18T11:00:54.169Z,20.09
2023-05-18T11:03:28.968Z,20.03
2023-05-18T11:06:11.307Z,20.03
2023-05-18T11:08:51.032Z,20.10
2023-05-18T11:11:30.605Z,20.17
2023-05-18T11:14:31.397Z,20.25
2023-05-18T11:17:23.065Z,20.26
2023-05-18T11:20:17.975Z,20.27
2023-05-18T11:23:04.208Z,20.29
2023-05-18T11:25:46.614Z,20.36
2023-05-18T11:28:23.968Z,20.39
2023-05-18T11:30:57.953Z,20.47
2023-05-18T11:33:32.787Z,20.60
2023-05-18T11:36:11.921Z,20.71
2023-05-18T11:38:56.391Z,20.78
2023-05-18T11:41:42.932Z,20.84
2023-05-18T11:44:29.896Z,20.87
2023-05-18T11:47:08.947Z,20.83
2023-05-18T11:49:47.811Z,20.75
2023-05-18T11:52:20.999Z,20.64
2023-05-18T11:54:56.332Z,20.51
2023-05-18T11:57:40.789Z,20.40
2023-05-18T12:00:17.490Z,20.32
2023-05-18T12:02:53.178Z,20.28
2023-05-18T12:05:32.257Z,20.22
2023-05-18T12:08:06.929Z,20.13
2023-05-18T12:10:41.600Z,20.06
2023-05-18T12:13:16.286Z,19.97
2023-05-18T12:15:51.071Z,19.94
2023-05-18T12:18:24.682Z,20.00
2023-05-18T12:20:58.949Z,20.12
2023-05-18T12:23:40.378Z,20.10
2023-05-18T12:26:14.887Z,20.09
2023-05-18T12:28:48.777Z,20.14
2023-05-18T12:31:22.670Z,20.19
2023-05-18T12:33:59.196Z,20.23
2023-05-18T12:36:34.104Z,20.25
2023-05-18T12:39:07.886Z,20.24
2023-05-18T12:41:41.316Z,20.27
2023-05-18T12:44:15.310Z,20.30
2023-05-18T12:46:49.749Z,20.38
2023-05-18T12:49:23.680Z,20.44
2023-05-18T12:51:58.497Z,20.40
2023-05-18T12:54:33.458Z,20.25
2023-05-18T12:57:10.344Z,20.17
2023-05-18T12:59:51.687Z,20.10
2023-05-18T13:02:41.772Z,19.96
2023-05-18T13:05:16.236Z,19.85
2023-05-18T13:07:50.004Z,19.79
2023-05-18T13:10:23.655Z,19.77
2023-05-18T13:13:02.063Z,19.75
2023-05-18T13:15:39.162Z,19.68
2023-05-18T13:18:13.278Z,19.60
2023-05-18T13:20:52.321Z,19.57
2023-05-18T13:23:29.323Z,19.55
2023-05-18T13:26:02.866Z,19.52
2023-05-18T13:28:37.515Z,19.49
2023-05-18T13:31:12.964Z,19.46
2023-05-18T13:33:47.026Z,19.41
2023-05-18T13:36:21.020Z,19.37
2023-05-18T13:38:54.561Z,19.38
2023-05-18T13:41:28.469Z,19.35
2023-05-18T13:44:02.791Z,19.30
2023-05-18T13:46:38.316Z,19.23
2023-05-18T13:49:13.106Z,19.11
2023-05-18T13:51:48.534Z,19.01
2023-05-18T13:54:22.144Z,18.91
2023-05-18T13:56:56.153Z,18.83
2023-05-18T13:59:29.738Z,18.75
2023-05-18T14:02:03.670Z,18.69
2023-05-18T14:04:38.360Z,18.64
2023-05-18T14:07:12.902Z,18.65
2023-05-18T14:09:46.606Z,18.62
2023-05-18T14:12:20.842Z,18.58
2023-05-18T14:14:54.561Z,18.54
2023-05-18T14:17:30.075Z,18.43
2023-05-18T14:20:05.403Z,18.35
2023-05-18T14:22:39.343Z,18.31
2023-05-18T14:25:13.484Z,18.28
2023-05-18T14:27:47.577Z,18.23
2023-05-18T14:30:21.632Z,18.18
2023-05-18T14:32:55.602Z,18.13
2023-05-18T14:35:29.361Z,18.05
2023-05-18T14:38:04.200Z,18.01
2023-05-18T14:40:37.739Z,17.98
2023-05-18T14:43:11.225Z,17.90
2023-05-18T14:45:48.306Z,17.87
2023-05-18T14:48:27.749Z,17.84
2023-05-18T14:51:01.469Z,17.80
2023-05-18T14:53:35.374Z,17.76
2023-05-18T14:56:10.512Z,17.73
2023-05-18T14:58:44.360Z,17.70
2023-05-18T15:01:17.822Z,17.68
2023-05-18T15:03:51.760Z,17.64
2023-05-18T15:06:26.377Z,17.59
2023-05-18T15:09:00.240Z,17.53
2023-05-18T15:11:34.135Z,17.50
2023-05-18T15:14:08.310Z,17.43
2023-05-18T15:16:42.799Z,17.41
2023-05-18T15:19:17.325Z,17.36
2023-05-18T15:21:51.181Z,17.33
2023-05-18T15:24:25.293Z,17.29
2023-05-18T15:26:59.020Z,17.26
2023-05-18T15:29:32.940Z,17.22
2023-05-18T15:32:07.228Z,17.18
2023-05-18T15:34:41.145Z,17.12
2023-05-18T15:37:15.353Z,17.08
2023-05-18T15:39:49.188Z,17.06
2023-05-18T15:42:22.877Z,17.03
2023-05-18T15:44:56.580Z,17.02
2023-05-18T15:47:30.078Z,17.02
2023-05-18T15:50:04.717Z,17.00
2023-05-18T15:52:38.456Z,16.99
2023-05-18T15:55:13.060Z,16.98
2023-05-18T15:57:47.086Z,16.93
2023-05-18T16:00:24.192Z,16.87
2023-05-18T16:02:58.078Z,16.81
2023-05-18T16:05:32.271Z,16.73
2023-05-18T16:08:06.204Z,16.68
2023-05-18T16:10:40.105Z,16.65
2023-05-18T16:13:14.546Z,16.60
2023-05-18T16:15:48.526Z,16.57
2023-05-18T16:18:22.258Z,16.57
2023-05-18T16:20:56.783Z,16.57
2023-05-18T16:23:30.756Z,16.54
2023-05-18T16:26:05.853Z,16.52
2023-05-18T16:28:39.636Z,16.51
2023-05-18T16:31:14.019Z,16.48
2023-05-18T16:33:47.782Z,16.48
2023-05-18T16:36:21.508Z,16.50
2023-05-18T16:38:55.250Z,16.52
2023-05-18T16:41:28.769Z,16.51
2023-05-18T16:44:02.778Z,16.52
2023-05-18T16:46:37.098Z,16.52
2023-05-18T16:49:10.606Z,16.52
2023-05-18T16:51:44.572Z,16.51
2023-05-18T16:54:17.932Z,16.49
2023-05-18T16:56:52.325Z,16.44
2023-05-18T16:59:25.826Z,16.43
2023-05-18T17:01:59.409Z,16.39
2023-05-18T17:04:33.344Z,16.35
2023-05-18T17:07:07.824Z,16.33
2023-05-18T17:09:42.803Z,16.33
2023-05-18T17:12:16.664Z,16.32
2023-05-18T17:14:52.070Z,16.29
2023-05-18T17:17:26.451Z,16.25
2023-05-18T17:20:00.407Z,16.23
2023-05-18T17:22:35.223Z,16.20
2023-05-18T17:25:10.108Z,16.18
2023-05-18T17:27:44.178Z,16.16
2023-05-18T17:30:18.283Z,16.13
2023-05-18T17:32:52.033Z,16.09
2023-05-18T17:35:25.792Z,16.05
2023-05-18T17:38:00.056Z,16.03
2023-05-18T17:40:34.163Z,15.99
2023-05-18T17:43:08.659Z,15.97
2023-05-18T17:45:42.676Z,15.95
2023-05-18T17:48:16.505Z,15.93
2023-05-18T17:50:52.651Z,15.92
2023-05-18T17:53:26.583Z,15.91
2023-05-18T17:56:00.682Z,15.88
2023-05-18T17:58:36.391Z,15.85
2023-05-18T18:01:11.048Z,15.81
2023-05-18T18:03:45.478Z,15.79
2023-05-18T18:06:23.071Z,15.75
2023-05-18T18:08:58.978Z,15.73
2023-05-18T18:11:32.872Z,15.72
2023-05-18T18:14:06.954Z,15.70
2023-05-18T18:16:41.137Z,15.69
2023-05-18T18:19:16.311Z,15.67
2023-05-18T18:21:50.089Z,15.66
2023-05-18T18:24:24.323Z,15.65
2023-05-18T18:26:58.056Z,15.64
2023-05-18T18:29:32.751Z,15.63
2023-05-18T18:32:09.123Z,15.61
2023-05-18T18:34:45.408Z,15.58
2023-05-18T18:37:19.145Z,15.55
2023-05-18T18:39:53.958Z,15.53
2023-05-18T18:42:29.357Z,15.51
2023-05-18T18:45:05.638Z,15.48
2023-05-18T18:47:40.915Z,15.44
2023-05-18T18:50:14.853Z,15.43
2023-05-18T18:52:49.388Z,15.43
2023-05-18T18:55:24.734Z,15.41
2023-05-18T18:58:01.632Z,15.36
2023-05-18T19:00:37.285Z,15.33
2023-05-18T19:03:14.940Z,15.33
2023-05-18T19:05:49.056Z,15.32
2023-05-18T19:08:23.752Z,15.30
2023-05-18T19:10:58.276Z,15.28
2023-05-18T19:13:32.569Z,15.28
2023-05-18T19:16:08.380Z,15.28
2023-05-18T19:18:42.494Z,15.29
2023-05-18T19:21:17.754Z,15.29
2023-05-18T19:23:51.554Z,15.29
2023-05-18T19:26:27.191Z,15.29
2023-05-18T19:29:04.955Z,15.28
2023-05-18T19:31:39.208Z,15.27
2023-05-18T19:34:14.442Z,15.27
2023-05-18T19:36:48.536Z,15.25
2023-05-18T19:39:24.540Z,15.23
2023-05-18T19:41:58.744Z,15.22
2023-05-18T19:44:33.002Z,15.20
2023-05-18T19:47:07.809Z,15.20
2023-05-18T19:49:41.745Z,15.20
2023-05-18T19:52:17.790Z,15.20
2023-05-18T19:54:52.188Z,15.20
2023-05-18T19:57:26.810Z,15.20
2023-05-18T20:00:01.487Z,15.21
2023-05-18T20:02:35.435Z,15.20
2023-05-18T20:05:12.992Z,15.19
2023-05-18T20:07:47.248Z,15.18
2023-05-18T20:10:21.054Z,15.18
2023-05-18T20:12:55.474Z,15.17
2023-05-18T20:15:30.398Z,15.16
2023-05-18T20:18:06.581Z,15.16
2023-05-18T20:20:41.630Z,15.16
2023-05-18T20:23:15.290Z,15.14
2023-05-18T20:25:49.613Z,15.11
2023-05-18T20:28:26.471Z,15.09
2023-05-18T20:31:00.108Z,15.10
2023-05-18T20:33:34.902Z,15.09
2023-05-18T20:36:09.620Z,15.07
2023-05-18T20:38:44.676Z,15.06
2023-05-18T20:41:19.055Z,15.07
2023-05-18T20:43:52.747Z,15.05
2023-05-18T20:46:28.051Z,15.03
2023-05-18T20:49:02.000Z,15.02
2023-05-18T20:51:36.167Z,15.01
2023-05-18T20:54:09.829Z,15.00
2023-05-18T20:56:43.919Z,14.99
2023-05-18T20:59:18.705Z,14.98
2023-05-18T21:01:52.165Z,14.97
2023-05-18T21:04:26.119Z,14.98
2023-05-18T21:07:00.317Z,14.98
2023-05-18T21:09:34.847Z,14.99
2023-05-18T21:12:09.406Z,15.00
2023-05-18T21:14:43.331Z,15.01
2023-05-18T21:17:17.250Z,15.00
2023-05-18T21:19:51.288Z,14.98
2023-05-18T21:22:24.905Z,14.98
2023-05-18T21:24:58.384Z,14.98
2023-05-18T21:27:32.481Z,14.97
2023-05-18T21:30:07.046Z,14.98
2023-05-18T21:32:42.918Z,14.98
2023-05-18T21:35:17.421Z,14.97
2023-05-18T21:37:51.665Z,14.96
2023-05-18T21:40:25.432Z,14.96
2023-05-18T21:42:59.508Z,14.96
2023-05-18T21:45:33.454Z,14.93
2023-05-18T21:48:07.894Z,14.91
2023-05-18T21:50:42.299Z,14.89
2023-05-18T21:53:16.243Z,14.89
2023-05-18T21:55:49.925Z,14.89
2023-05-18T21:58:24.931Z,14.90
2023-05-18T22:00:58.975Z,14.93
2023-05-18T22:03:32.947Z,14.96
2023-05-18T22:06:06.775Z,15.00
2023-05-18T22:08:40.645Z,15.02
2023-05-18T22:11:14.654Z,15.01
2023-05-18T22:13:48.150Z,15.02
2023-05-18T22:16:22.428Z,15.01
2023-05-18T22:18:56.247Z,15.01
2023-05-18T22:21:30.480Z,14.99
2023-05-18T22:24:04.539Z,14.97
2023-05-18T22:26:39.100Z,14.93
2023-05-18T22:29:12.639Z,14.87
2023-05-18T22:31:46.267Z,14.80
2023-05-18T22:34:20.276Z,14.74
2023-05-18T22:36:54.231Z,14.69
2023-05-18T22:39:28.124Z,14.66
2023-05-18T22:42:02.145Z,14.60
2023-05-18T22:44:35.865Z,14.54
2023-05-18T22:47:11.740Z,14.49
2023-05-18T22:49:46.218Z,14.47
2023-05-18T22:52:20.081Z,14.45
2023-05-18T22:54:54.086Z,14.45
2023-05-18T22:57:27.685Z,14.45
2023-05-18T23:00:01.260Z,14.44
2023-05-18T23:02:34.951Z,14.45
2023-05-18T23:05:09.804Z,14.48
2023-05-18T23:07:43.407Z,14.52
2023-05-18T23:10:18.883Z,14.55
2023-05-18T23:12:53.325Z,14.54
2023-05-18T23:15:28.092Z,14.53
2023-05-18T23:18:02.182Z,14.51
2023-05-18T23:20:36.437Z,14.49
2023-05-18T23:23:10.521Z,14.46
2023-05-18T23:25:44.156Z,14.45
2023-05-18T23:28:17.848Z,14.43
2023-05-18T23:30:51.732Z,14.40
2023-05-18T23:33:26.962Z,14.40
2023-05-18T23:36:04.191Z,14.40
2023-05-18T23:38:38.322Z,14.42
2023-05-18T23:41:13.441Z,14.43
2023-05-18T23:43:48.469Z,14.44
2023-05-18T23:46:23.389Z,14.44
2023-05-18T23:48:58.213Z,14.41
2023-05-18T23:51:36.810Z,14.38
2023-05-18T23:54:13.393Z,14.36
2023-05-18T23:56:47.932Z,14.33
2023-05-18T23:59:21.994Z,14.30
